Tiempo atmosférico en la estación meteorológica de Lugo, Lugo (442 m.)



Fecha
DESCASC
Temp. máxima en grados centígrados (hora)
DESCASC
Temp. mínima en grados centígrados (hora)
DESCASC
Temp. media en grados centígrados
DESCASC
Racha de viento máxima en m/sg (hora)
DESCASC
Velocidad máxima media en intervalos de 10 minutos(hora)
DESCASC
Precipitaciones diarias en mm
DESCASC
Precipitaciones de 00:00 a 06:00 en mm
DESCASC
Precipitaciones de 06:00 a 12:00 en mm
DESCASC
Precipitaciones de 12:00 a 18:00 en mm
DESCASC
Precipitaciones de 18:00 a 24:00 en mm
DESCASC
08-12-2019 13.3 (14:50) 5.5 (23:40) 9.4 6.67 (15:10) 2.5 (15:10) 5.6 0.4 5.2 0 0
07-12-2019 12.5 (15:30) 4.7 (01:30) 8.6 4.17 (13:20) 2.22 (06:10) 0 0 0 0 0
06-12-2019 11 (16:30) 4.2 (08:50) 7.6 5 (12:10) 2.22 (12:10) 0 0 0 0 0
05-12-2019 11.9 (13:00) 2.6 (00:00) 7.2 7.5 (12:30) 3.61 (13:40) 0 0 0 0 0
04-12-2019 8 (16:50) -2.5 (-00:0) 2.8 4.17 (17:10) 1.94 (17:10) 0 0 0 0 0
03-12-2019 9.1 (15:30) -0.4 (00:00) 4.4 5.83 (17:40) 2.5 (17:40) -- 0 -- -- 0
02-12-2019 9.3 (14:00) 3.6 (00:00) 6.5 10.56 (11:10) 5 (11:10) -- -- 0 0 0
01-12-2019 9.9 (14:30) 6.4 (00:00) 8.1 10.83 (17:20) 4.17 (17:40) -- -- -- -- --
30-11-2019 13.6 (05:30) 7.2 (00:00) 10.4 11.94 (16:40) 5 (13:50) -- -- 2.4 4.8 0
29-11-2019 14.6 (16:00) 8.1 (00:00) 11.4 6.39 (14:30) 1.94 (23:10) -- -- -- -- --
28-11-2019 13.4 (18:50) 10.1 (00:00) 11.8 8.61 (18:40) 3.06 (18:40) -- -- -- -- --
27-11-2019 11.2 (12:30) 9.6 (00:00) 10.4 10.28 (13:20) 4.72 (00:30) -- -- -- -- --
26-11-2019 15.2 (13:10) 9.3 (00:00) 12.3 13.89 (16:00) 6.67 (16:30) -- -- -- -- --
25-11-2019 14 (15:10) 10.4 (00:00) 12.2 9.17 (12:20) 4.72 (04:40) -- -- -- -- --
24-11-2019 12.3 (21:20) 5.6 (00:00) 9 9.17 (18:40) 2.78 (15:00) -- -- -- -- --
23-11-2019 10.9 (14:40) 5.8 (00:00) 8.3 15.83 (01:40) 4.72 (01:50) -- -- -- -- --
22-11-2019 11.9 (13:00) 6.9 (00:00) 9.4 14.44 (11:40) 7.22 (18:30) -- -- -- -- --
21-11-2019 11.3 (14:30) 3.6 (00:00) 7.5 7.78 (14:50) 3.61 (15:30) -- -- -- -- --
20-11-2019 11.2 (13:50) 5.8 (00:00) 8.5 6.39 (12:50) 1.94 (10:30) -- -- -- -- --
19-11-2019 9.4 (15:40) 1.4 (00:00) 5.4 4.72 (13:30) 1.94 (10:30) -- -- -- -- --
18-11-2019 10 (15:00) 3.2 (00:00) 6.6 3.33 (05:10) 1.39 (05:00) -- -- -- -- --
17-11-2019 9.7 (13:30) 5.4 (00:00) 7.5 8.33 (13:40) 3.61 (13:40) 0 0 0 0 0
16-11-2019 8.3 (14:20) 2.8 (00:00) 5.6 7.78 (14:40) 3.61 (14:40) 4 4 0 0 0
15-11-2019 7.4 (13:30) 2.9 (00:00) 5.2 8.61 (16:10) 3.33 (13:40) 23 7 0.4 11.2 4.4
14-11-2019 8.2 (14:30) 2.9 (00:00) 5.5 12.22 (15:00) 5 (14:20) 20.8 4.8 4.4 6.4 5.2
13-11-2019 13.2 (01:00) 7.5 (00:00) 10.3 11.67 (23:40) 4.72 (22:00) 5.2 0 0 0 5.2
12-11-2019 13 (23:59) 5.7 (00:00) 9.3 5.28 (14:50) 1.67 (22:00) 0 0 0 0 0
11-11-2019 12 (14:10) 5.9 (22:20) 9 7.5 (13:40) 2.78 (13:00) 0.8 0.4 0.4 0 0

Gráficas

Temp. máximas Temp. mínimas Temp. medias Precipitaciones Rachas de viento máximas Velocidades máximas media en intervalos de 10 minutos

Datos horarios

Fecha y hora oficial Temperatura (ºC) Velocidad del viento (km/h) Dirección del viento Racha (km/h) Dirección de racha Precipitación (mm) Presión (hPa) Tendencia (hPa) Humedad (%)
2019-12-10 23:00:00 9.7 5 Sur 18 Sur 0 -- -- 67
2019-12-10 22:00:00 9.6 6 Sur 15 Sur 0 -- -- 61
2019-12-10 21:00:00 9.7 4 Sudeste 10 Sur 0 -- -- 58
2019-12-10 20:00:00 9.8 3 Sudeste 12 Sudeste 0 -- -- 59
2019-12-10 19:00:00 9.9 5 Sudeste 14 Sur 0 -- -- 63
2019-12-10 18:00:00 10.8 6 Sudeste 14 Sur 0 -- -- 64
2019-12-10 17:00:00 11 8 Sur 17 Sudeste 0 -- -- 65
2019-12-10 16:00:00 11.6 3 Sur 22 Sur 0 -- -- 64
2019-12-10 15:00:00 10.6 4 Sur 10 Sur 0 -- -- 72
2019-12-10 14:00:00 8.7 5 Sudeste 13 Sudeste 0 -- -- 87
2019-12-10 13:00:00 7.9 4 Sudeste 13 Sudeste 0 -- -- 91
2019-12-10 12:00:00 5.9 6 Sudeste 15 Sudeste 0 -- -- 96
2019-12-10 11:00:00 3.6 8 Sudeste 14 Sudeste 0 -- -- 99
2019-12-10 10:00:00 2.4 8 Sudeste 15 Sudeste 0 -- -- 99
2019-12-10 09:00:00 1.5 6 Sudeste 13 Sudeste 0 -- -- 100
2019-12-10 08:00:00 1.4 8 Sudeste 15 Sudeste 0 -- -- 100
2019-12-10 07:00:00 1.2 7 Sudeste 15 Sudeste 0 -- -- 100
2019-12-10 06:00:00 1.3 5 Sudeste 12 Sudeste 0 -- -- 100
2019-12-10 05:00:00 0.9 8 Sudeste 15 Sudeste 0 -- -- 99
2019-12-10 04:00:00 1.4 4 Sudeste 8 Sudeste 0 -- -- 99
2019-12-10 03:00:00 2 4 Sudeste 11 Sudeste 0 -- -- 99
2019-12-10 02:00:00 2.3 5 Sudeste 11 Sudeste 0 -- -- 98
2019-12-10 01:00:00 3.1 5 Sudeste 11 Sudeste 0 -- -- 97
2019-12-10 00:00:00 3.7 4 Sudeste 7 Sur 0 -- -- 97
2019-12-09 23:00:00 4.1 3 Sudeste 6 Sudeste 0 -- -- 96
2019-12-09 22:00:00 4.8 0 Calma 3 Este 0 -- -- 95
2019-12-09 21:00:00 6.1 0 Calma 6 Sudeste 0 -- -- 94
2019-12-09 20:00:00 7.5 3 Sudeste 8 Sudeste 0 -- -- 92
2019-12-09 19:00:00 8.4 3 Sudeste 5 Sudeste 0 -- -- 87
2019-12-09 18:00:00 9.6 0 Calma 4 Oeste 0 -- -- 85
2019-12-09 17:00:00 10.6 0 Calma 9 Sudeste 0 -- -- 82
2019-12-09 16:00:00 11 0 Calma 8 Sudeste 0 -- -- 78
2019-12-09 15:00:00 10.9 3 Sudeste 8 Sudeste 0 -- -- 80
2019-12-09 14:00:00 10.3 0 Calma 4 Oeste 0 -- -- 85
2019-12-09 13:00:00 9.1 0 Calma 6 Sudeste 0 -- -- 91
2019-12-09 12:00:00 6.9 4 Sudeste 9 Este 0 -- -- 96
2019-12-09 11:00:00 5.6 5 Sudeste 9 Sudeste 0 -- -- 98
2019-12-09 10:00:00 4.7 6 Sudeste 11 Este 0 -- -- 98
2019-12-09 09:00:00 4.8 2 Sur 8 Sudeste 0 -- -- 98
2019-12-09 08:00:00 4.6 2 Sudeste 10 Este 0 -- -- 99
2019-12-09 07:00:00 4.2 5 Sudeste 14 Este 0 -- -- 99
2019-12-09 06:00:00 4 7 Sudeste 12 Sudeste 0 -- -- 98
2019-12-09 05:00:00 4.3 5 Sudeste 10 Sudeste 0 -- -- 98
2019-12-09 04:00:00 4.3 4 Sudeste 8 Sudeste 0 -- -- 98
2019-12-09 03:00:00 4.6 0 Calma 6 Sudeste 0 -- -- 98
2019-12-09 02:00:00 5 3 Sudeste 7 Sudeste 0 -- -- 97
2019-12-09 01:00:00 5.5 4 Sudeste 8 Sudeste 0 -- -- 97
2019-12-09 00:00:00 5.6 3 Sudeste 9 Sudeste 0 -- -- 97
2019-12-08 23:00:00 6.2 2 Sudeste 5 Sudeste 0 -- -- 97
2019-12-08 22:00:00 6.1 0 Calma 4 Noroeste 0 -- -- 96
2019-12-08 21:00:00 6 0 Calma 5 Noroeste 0 -- -- 96
2019-12-08 20:00:00 6.9 2 Oeste 5 Noroeste 0 -- -- 94
2019-12-08 19:00:00 8.3 0 Calma 13 Noroeste 0 -- -- 92
2019-12-08 18:00:00 9.7 5 Noroeste 16 Oeste 0 -- -- 91
2019-12-08 17:00:00 11 6 Noroeste 19 Noroeste 0 -- -- 93
2019-12-08 16:00:00 12 6 Noroeste 24 Noroeste 0 -- -- 94
2019-12-08 15:00:00 13.3 3 Noroeste 10 Oeste 0 -- -- 96
2019-12-08 14:00:00 12.9 0 Calma 4 Sur 0 -- -- 97
2019-12-08 13:00:00 12.1 3 Sudeste 9 Este 0 -- -- 97
2019-12-08 12:00:00 11.7 3 Sudeste 7 Sudeste 0.4 -- -- 97
2019-12-08 11:00:00 11.3 2 Sur 7 Sur 0 -- -- 98
2019-12-08 10:00:00 10.8 2 Sudeste 7 Sudeste 3.6 -- -- 98
2019-12-08 09:00:00 10.6 5 Sur 16 Sudeste 0.2 -- -- 98
2019-12-08 08:00:00 10.5 5 Sudeste 12 Sudeste 0.2 -- -- 97
2019-12-08 07:00:00 10.4 3 Sur 9 Sudeste 0.8 -- -- 97
2019-12-08 06:00:00 10.6 2 Sur 15 Sur 0.2 -- -- 97
2019-12-08 05:00:00 10.6 4 Sur 12 Sur 0.2 -- -- 96
2019-12-08 04:00:00 10.6 3 Sur 11 Sur 0 -- -- 96
2019-12-08 03:00:00 10.6 3 Sudeste 10 Sur 0 -- -- 96
2019-12-08 02:00:00 10.7 3 Sur 12 Sur 0 -- -- 95
2019-12-08 01:00:00 10.7 3 Sur 10 Sudeste 0 -- -- 94
2019-12-08 00:00:00 10.2 4 Sur 11 Sudeste 0 -- -- 93
2019-12-07 23:00:00 10 5 Sudeste 10 Sudeste 0 -- -- 92
2019-12-07 22:00:00 10.1 3 Sudeste 10 Este 0 -- -- 88
2019-12-07 21:00:00 10.3 5 Sudeste 12 Sudeste 0 -- -- 88
2019-12-07 20:00:00 10.5 3 Sudeste 9 Sudeste 0 -- -- 86
2019-12-07 19:00:00 10.9 2 Sudeste 6 Sudeste 0 -- -- 84
2019-12-07 18:00:00 11.3 2 Sudeste 12 Sudeste 0 -- -- 81
2019-12-07 17:00:00 12.1 3 Sudeste 9 Sur 0 -- -- 78
2019-12-07 16:00:00 12.3 2 Oeste 11 Sudeste 0 -- -- 81
2019-12-07 15:00:00 11.7 4 Sudeste 12 Sudeste 0 -- -- 78
2019-12-07 14:00:00 10.8 6 Sudeste 15 Sudeste 0 -- -- 79
2019-12-07 13:00:00 9.5 7 Sudeste 14 Sudeste 0 -- -- 85
2019-12-07 12:00:00 8.2 7 Sudeste 13 Este 0 -- -- 92
2019-12-07 11:00:00 7 6 Sudeste 11 Sur 0 -- -- 94
2019-12-07 10:00:00 5.5 4 Sudeste 9 Este 0 -- -- 97
2019-12-07 09:00:00 5 5 Sudeste 10 Sudeste 0 -- -- 97
2019-12-07 08:00:00 5.1 6 Sudeste 12 Sudeste 0 -- -- 97
2019-12-07 07:00:00 4.8 4 Sudeste 15 Este 0 -- -- 98
2019-12-07 06:00:00 5 7 Sudeste 12 Sudeste 0 -- -- 97
2019-12-07 05:00:00 5.1 5 Sudeste 9 Sudeste 0 -- -- 97
2019-12-07 04:00:00 4.9 5 Sudeste 12 Sudeste 0 -- -- 97
2019-12-07 03:00:00 4.9 4 Sudeste 10 Este 0 -- -- 97
2019-12-07 02:00:00 4.8 5 Sudeste 10 Este 0 -- -- 97
2019-12-07 01:00:00 5.2 5 Sudeste 10 Sudeste 0 -- -- 97
2019-12-07 00:00:00 5 5 Sudeste 9 Este 0 -- -- 97
2019-12-06 23:00:00 4.7 0 Calma 5 Sudeste 0 -- -- 96
2019-12-06 22:00:00 5.1 0 Calma 4 Noroeste 0 -- -- 95
2019-12-06 21:00:00 5.9 0 Calma 3 Sur 0 -- -- 94
2019-12-06 20:00:00 7 0 Calma 6 Sudeste 0 -- -- 92
2019-12-06 19:00:00 8.1 2 Sudeste 5 Sudeste 0 -- -- 89
2019-12-06 18:00:00 9.4 0 Calma 8 Sur 0 -- -- 82
2019-12-06 17:00:00 10.9 5 Sudeste 15 Sudeste 0 -- -- 79
2019-12-06 16:00:00 10.7 5 Sudeste 15 Sudeste 0 -- -- 81
2019-12-06 15:00:00 10.1 6 Sudeste 12 Este 0 -- -- 86
2019-12-06 14:00:00 8.1 3 Sudeste 9 Sudeste 0 -- -- 94
2019-12-06 13:00:00 6.7 3 Sudeste 18 Sudeste 0 -- -- 97
2019-12-06 12:00:00 6.4 8 Sudeste 16 Sudeste 0 -- -- 98
2019-12-06 11:00:00 5.4 2 Sudeste 5 Sudeste 0 -- -- 98
2019-12-06 10:00:00 4.6 0 Calma 7 Sudeste 0 -- -- 99
2019-12-06 09:00:00 4.2 5 Sudeste 13 Sudeste 0 -- -- 99
2019-12-06 08:00:00 4.4 8 Sudeste 14 Sudeste 0 -- -- 99
2019-12-06 07:00:00 4.8 0 Calma 9 Sudeste 0 -- -- 99
2019-12-06 06:00:00 5 4 Sudeste 15 Sudeste 0 -- -- 99
2019-12-06 05:00:00 5.7 4 Sudeste 9 Sudeste 0 -- -- 98
2019-12-06 04:00:00 5.6 0 Calma 4 Oeste 0 -- -- 98
2019-12-06 03:00:00 5.5 0 Calma 9 Sudeste 0 -- -- 98
2019-12-06 02:00:00 5.3 0 Calma 7 Sudeste 0 -- -- 98
2019-12-06 01:00:00 5.1 2 Sudeste 6 Sur 0 -- -- 97
2019-12-06 00:00:00 5.7 0 Calma 4 Noroeste 0 -- -- 97
2019-12-05 23:00:00 5.8 0 Calma 7 Noroeste 0 -- -- 97
2019-12-05 22:00:00 6.4 4 Noroeste 8 Noroeste 0 -- -- 96
2019-12-05 21:00:00 7.2 4 Noroeste 13 Norte 0 -- -- 94
2019-12-05 20:00:00 8 3 Norte 13 Norte 0 -- -- 93
2019-12-05 19:00:00 8.6 6 Norte 14 Norte 0 -- -- 91
2019-12-05 18:00:00 9.7 3 Norte 13 Norte 0 -- -- 86
2019-12-05 17:00:00 11 8 Nordeste 22 Nordeste 0 -- -- 80
2019-12-05 16:00:00 11.3 11 Nordeste 24 Nordeste 0 -- -- 78
2019-12-05 15:00:00 11.4 8 Nordeste 23 Norte 0 -- -- 78
2019-12-05 14:00:00 11.2 11 Norte 24 Norte 0 -- -- 79
2019-12-05 13:00:00 11.9 8 Norte 27 Norte 0 -- -- 76
2019-12-05 12:00:00 10.8 6 Norte 22 Norte 0 -- -- 79
2019-12-05 11:00:00 9.5 6 Norte 18 Noroeste 0 -- -- 86
2019-12-05 10:00:00 7.7 3 Norte 15 Norte 0 -- -- 94
2019-12-05 09:00:00 7 5 Norte 15 Norte 0 -- -- 96
2019-12-05 08:00:00 7 5 Noroeste 10 Noroeste 0 -- -- 96
2019-12-05 07:00:00 5.8 3 Noroeste 7 Noroeste 0 -- -- 97
2019-12-05 06:00:00 4.4 4 Oeste 14 Noroeste 0 -- -- 95
2019-12-05 05:00:00 4.6 6 Noroeste 17 Noroeste 0 -- -- 96
2019-12-05 04:00:00 3.5 3 Oeste 10 Noroeste 0 -- -- 97
2019-12-05 03:00:00 4.1 5 Noroeste 10 Noroeste 0 -- -- 99
2019-12-05 02:00:00 3.6 5 Noroeste 12 Noroeste 0 -- -- 98
2019-12-05 01:00:00 3.6 6 Noroeste 10 Noroeste 0 -- -- 96
2019-12-05 00:00:00 2.6 3 Noroeste 7 Noroeste 0 -- -- 96
2019-12-04 23:00:00 2.3 3 Oeste 10 Noroeste 0 -- -- 95
2019-12-04 22:00:00 2.6 2 Noroeste 8 Oeste 0 -- -- 92
2019-12-04 21:00:00 2.8 3 Noroeste 7 Oeste 0 -- -- 89
2019-12-04 20:00:00 3.7 2 Noroeste 8 Norte 0 -- -- 84
2019-12-04 19:00:00 4.7 0 Calma 7 Norte 0 -- -- 81
2019-12-04 18:00:00 6.6 3 Norte 15 Norte 0 -- -- 74
2019-12-04 17:00:00 8 5 Norte 14 Nordeste 0 -- -- 69
2019-12-04 16:00:00 6.5 3 Noroeste 12 Noroeste 0 -- -- 90
2019-12-04 15:00:00 3.7 4 Noroeste 7 Oeste 0 -- -- 95
2019-12-04 14:00:00 2 3 Noroeste 6 Noroeste 0 -- -- 97
2019-12-04 13:00:00 0.8 2 Noroeste 5 Oeste 0 -- -- 97
2019-12-04 12:00:00 0.2 0 Calma 3 Sur 0 -- -- 98
2019-12-04 11:00:00 -1.3 0 Calma -- -- 0 -- -- 98
2019-12-04 10:00:00 -1.6 0 Calma -- -- 0 -- -- 98
2019-12-04 09:00:00 -2.1 0 Calma -- -- 0 -- -- 99
2019-12-04 08:00:00 -2.4 0 Calma -- -- -- -- -- 99
2019-12-04 07:00:00 -2.2 0 Calma -- -- -- -- -- 99
2019-12-04 06:00:00 -2 0 Calma -- -- -- -- -- 99
2019-12-04 05:00:00 -1.9 0 Calma 9 Este -- -- -- 98
2019-12-04 04:00:00 -1.6 4 Sudeste 10 Sudeste -- -- -- 98
2019-12-04 03:00:00 -0.9 3 Sudeste 6 Sudeste -- -- -- 97
2019-12-04 02:00:00 -0.5 3 Sudeste 7 Sudeste -- -- -- 97
2019-12-04 01:00:00 -0.3 3 Sudeste 9 Sudeste -- -- -- 97
2019-12-04 00:00:00 -0.1 2 Sudeste 4 Sudeste -- -- -- 95
2019-12-03 23:00:00 0.6 0 Calma 4 Sudeste -- -- -- 95
2019-12-03 22:00:00 1.4 2 Noroeste 6 Noroeste -- -- -- 94
2019-12-03 21:00:00 2.6 2 Noroeste 9 Oeste -- -- -- 92
2019-12-03 20:00:00 4 3 Noroeste 10 Norte -- -- -- 87
2019-12-03 19:00:00 5.5 3 Norte 15 Norte -- -- -- 80
2019-12-03 18:00:00 6.8 9 Nordeste 21 Nordeste -- -- -- 74
2019-12-03 17:00:00 8.4 7 Norte 18 Norte -- -- -- 70
2019-12-03 16:00:00 9.1 7 Norte 17 Nordeste -- -- -- 68
2019-12-03 15:00:00 9 5 Nordeste 17 Nordeste -- -- -- 66
2019-12-03 14:00:00 7.6 3 Sudoeste 7 Sudeste -- -- -- 72
2019-12-03 13:00:00 7.6 3 Sudeste 8 Sudeste -- -- -- 71
2019-12-03 12:00:00 -- 3 Sudeste -- -- -- -- -- --
2019-12-03 11:00:00 3.2 2 Sudeste 5 Este -- -- -- 88
2019-12-03 10:00:00 0.7 0 Calma 2 Sudeste -- -- -- 94
2019-12-03 09:00:00 -0.2 0 Calma 3 Noroeste -- -- -- 93
2019-12-03 08:00:00 1.3 2 Noroeste 8 Nordeste -- -- -- 91
2019-12-03 07:00:00 1.1 2 Noroeste 6 Noroeste -- -- -- 93
2019-12-03 06:00:00 1.8 3 Noroeste 10 Nordeste -- -- -- 90
2019-12-03 05:00:00 2.7 2 Norte 7 Nordeste -- -- -- 89
2019-12-03 04:00:00 3.6 3 Noroeste 15 Norte -- -- -- 82
2019-12-03 03:00:00 2.5 3 Norte 10 Nordeste -- -- -- 88
2019-12-03 02:00:00 4.2 5 Nordeste 11 Norte -- -- -- 79
2019-12-03 01:00:00 4.3 5 Nordeste 12 Norte -- -- -- 79
2019-12-03 00:00:00 3.7 2 Norte 10 Noroeste -- -- -- 88
2019-12-02 23:00:00 4.3 3 Noroeste 14 Este -- -- -- 86
2019-12-02 22:00:00 4.9 3 Norte 17 Norte -- -- -- 84
2019-12-02 21:00:00 5.7 6 Norte 16 Nordeste -- -- -- 82
2019-12-02 20:00:00 5.8 3 Noroeste 15 Norte -- -- -- 86
2019-12-02 19:00:00 6.7 6 Norte 22 Norte -- -- -- 84
2019-12-02 18:00:00 7.5 12 Nordeste 23 Nordeste -- -- -- 82
2019-12-02 17:00:00 8.1 10 Norte 20 Norte -- -- -- 77
2019-12-02 16:00:00 8.6 8 Nordeste 20 Nordeste -- -- -- 76
2019-12-02 15:00:00 8.6 10 Nordeste 30 Nordeste -- -- -- 76
2019-12-02 14:00:00 9.3 9 Nordeste 30 Este -- -- -- 76
2019-12-02 13:00:00 8.4 6 Este 33 Nordeste -- -- -- 83
2019-12-02 12:00:00 8.8 15 Norte 38 Nordeste -- -- -- 84
2019-12-02 11:00:00 8.4 17 Nordeste 33 Norte -- -- -- 87
2019-12-02 10:00:00 7.7 8 Nordeste 26 Nordeste -- -- -- 90
2019-12-02 09:00:00 7 8 Norte 19 Norte -- -- -- 95
2019-12-02 08:00:00 6.9 4 Norte 19 Nordeste -- -- -- 94
2019-12-02 07:00:00 6.8 4 Noroeste 11 Noroeste -- -- -- 94
2019-12-02 06:00:00 6.3 5 Norte 14 Noroeste -- -- -- 94
2019-12-02 05:00:00 6.5 3 Noroeste 14 Nordeste -- -- -- 93
2019-12-02 04:00:00 6.7 5 Norte 19 Norte -- -- -- 91
2019-12-02 03:00:00 6.5 8 Nordeste 25 Nordeste -- -- -- 91
2019-12-02 02:00:00 6.4 9 Nordeste 22 Nordeste -- -- -- 90
2019-12-02 01:00:00 6.5 6 Norte 25 Este -- -- -- 92
2019-12-02 00:00:00 6.5 9 Norte 30 Norte -- -- -- 93
2019-12-01 23:00:00 6.4 8 Nordeste 32 Nordeste -- -- -- 90
2019-12-01 22:00:00 6.5 6 Nordeste 27 Nordeste -- -- -- 92
2019-12-01 21:00:00 6.8 5 Norte 26 Nordeste -- -- -- 89
2019-12-01 20:00:00 7.1 9 Nordeste 23 Norte -- -- -- 86
2019-12-01 19:00:00 7.5 9 Nordeste 30 Nordeste -- -- -- 92
2019-12-01 18:00:00 7.7 9 Norte 39 Norte -- -- -- 92
2019-12-01 17:00:00 8.7 7 Norte 24 Nordeste -- -- -- 93
2019-12-01 16:00:00 9.1 5 Nordeste 22 Este -- -- -- 91
2019-12-01 15:00:00 9.5 7 Nordeste 23 Nordeste -- -- -- 88
2019-12-01 14:00:00 9.3 10 Nordeste 23 Nordeste -- -- -- 90
2019-12-01 13:00:00 9.3 7 Nordeste 22 Norte -- -- -- 91
2019-12-01 12:00:00 9.7 8 Norte 25 Norte -- -- -- 87
2019-12-01 11:00:00 8.8 7 Norte 22 Norte -- -- -- 92
2019-12-01 10:00:00 7.6 5 Norte 16 Norte -- -- -- 92
2019-12-01 09:00:00 7.4 3 Norte 15 Nordeste -- -- -- 94
2019-12-01 08:00:00 7.3 4 Norte 14 Norte -- -- -- 94
2019-12-01 07:00:00 7.3 2 Norte 8 Norte -- -- -- 93
2019-12-01 06:00:00 7.2 0 Calma 10 Sudeste -- -- -- 94
2019-12-01 05:00:00 7.2 5 Sudeste 17 Sur -- -- -- 94
2019-12-01 04:00:00 7.4 6 Sudeste 21 Sur -- -- -- 95
2019-12-01 03:00:00 7.5 7 Sur 21 Sur -- -- -- 95
2019-12-01 02:00:00 7.6 5 Sur 19 Sudeste -- -- -- 95
2019-12-01 01:00:00 7.9 4 Sur 14 Sur -- -- -- 95
2019-12-01 00:00:00 8.1 5 Sur 19 Sudeste -- -- -- 94
2019-11-30 23:00:00 8 5 Sur 22 Sur -- -- -- 93
2019-11-30 22:00:00 8.3 4 Sur 18 Sur -- -- -- 94
2019-11-30 21:00:00 8.3 2 Sur 13 Sur -- -- -- 92
2019-11-30 20:00:00 8.5 3 Sur 19 Sudeste -- -- -- 89
2019-11-30 19:00:00 8.3 3 Sur 10 Sur -- -- -- 88
2019-11-30 18:00:00 9.2 0 Calma 32 Oeste -- -- -- 85
2019-11-30 17:00:00 10.2 14 Oeste 43 Oeste -- -- -- 80
2019-11-30 16:00:00 8.6 3 Noroeste 39 Oeste -- -- -- 92
2019-11-30 15:00:00 10.5 8 Oeste 30 Oeste -- -- -- 84
2019-11-30 14:00:00 9.6 15 Oeste 40 Oeste -- -- -- 77
2019-11-30 13:00:00 11 12 Oeste 31 Sudoeste -- -- -- 72
2019-11-30 12:00:00 10.6 11 Oeste 23 Oeste -- -- -- 82
2019-11-30 11:00:00 10.6 8 Sudoeste 30 Oeste -- -- -- 82
2019-11-30 10:00:00 10 8 Oeste 26 Oeste -- -- -- 89
2019-11-30 09:00:00 10.3 3 Sudoeste 22 Oeste -- -- -- 91
2019-11-30 08:00:00 10.3 9 Oeste 24 Oeste -- -- -- 90
2019-11-30 07:00:00 11 13 Oeste 35 Oeste -- -- -- 89
2019-11-30 06:00:00 13.5 13 Oeste 33 Oeste -- -- -- 90
2019-11-30 05:00:00 13.4 10 Sudoeste 32 Oeste -- -- -- 94
2019-11-30 04:00:00 13.3 5 Oeste 35 Oeste -- -- -- 96
2019-11-30 03:00:00 13.2 4 Sudoeste 13 Sudeste -- -- -- 97
2019-11-30 02:00:00 13 6 Sur 19 Sudeste -- -- -- 97
2019-11-30 01:00:00 12.1 6 Sur 20 Sudeste -- -- -- 95
2019-11-30 00:00:00 12.1 5 Sur 17 Sudeste -- -- -- 93
2019-11-29 23:00:00 12 6 Sur 16 Sudeste -- -- -- 91
2019-11-29 22:00:00 11.4 3 Sudeste 13 Sur -- -- -- 92
2019-11-29 21:00:00 11.3 6 Sudeste 11 Sudeste -- -- -- 92
2019-11-29 20:00:00 12.2 2 Este 6 Sudeste -- -- -- 88
2019-11-29 19:00:00 12.9 3 Sudeste 6 Sudeste -- -- -- 84
2019-11-29 18:00:00 13.6 2 Sudeste 8 Sur -- -- -- 80
2019-11-29 17:00:00 13.9 3 Sur 13 Sur -- -- -- 77
2019-11-29 16:00:00 14.6 3 Sudoeste 12 Sudoeste -- -- -- 75
2019-11-29 15:00:00 13.9 4 Sudoeste 23 Oeste -- -- -- 76
2019-11-29 14:00:00 13.6 4 Sudoeste 16 Oeste -- -- -- 80
2019-11-29 13:00:00 12.7 2 Sudoeste 13 Oeste -- -- -- 89
2019-11-29 12:00:00 11.4 4 Sudeste 8 Sur -- -- -- 97
2019-11-29 11:00:00 9.8 3 Sudeste 5 Este -- -- -- 98
2019-11-29 10:00:00 8.6 0 Calma 12 Sudeste -- -- -- 99
2019-11-29 09:00:00 8.3 3 Sur 6 Sur -- -- -- 98
2019-11-29 08:00:00 8.5 3 Sudeste 8 Sudeste -- -- -- 98
2019-11-29 07:00:00 8.4 0 Calma 5 Oeste -- -- -- 99
2019-11-29 06:00:00 8.4 0 Calma 3 Sur -- -- -- 98
2019-11-29 05:00:00 8.2 0 Calma 3 Oeste -- -- -- 98
2019-11-29 04:00:00 8.5 0 Calma 8 Sudeste -- -- -- 97
2019-11-29 03:00:00 8.7 2 Sudeste 8 Oeste -- -- -- 97
2019-11-29 02:00:00 9.6 0 Calma 9 Oeste -- -- -- 97
2019-11-29 01:00:00 10 0 Calma 3 Oeste -- -- -- 96
2019-11-29 00:00:00 10.9 0 Calma 8 Noroeste -- -- -- 95
2019-11-28 23:00:00 11.9 4 Oeste 11 Oeste -- -- -- 94
2019-11-28 22:00:00 12.4 5 Oeste 12 Oeste -- -- -- 93
2019-11-28 21:00:00 12.7 7 Oeste 23 Oeste -- -- -- 93
2019-11-28 20:00:00 13.2 9 Oeste 19 Oeste -- -- -- 95
2019-11-28 19:00:00 13.3 8 Oeste 31 Oeste -- -- -- 95
2019-11-28 18:00:00 12 3 Sur 15 Sur -- -- -- 98
2019-11-28 17:00:00 11.7 6 Sur 19 Sur -- -- -- 97
2019-11-28 16:00:00 11.4 5 Sur 21 Sur -- -- -- 97
2019-11-28 15:00:00 11.6 4 Sur 14 Sur -- -- -- 96
2019-11-28 14:00:00 11.8 3 Sur 7 Sur -- -- -- 95
2019-11-28 13:00:00 11.7 0 Calma 6 Sudeste -- -- -- 97
2019-11-28 12:00:00 11.1 3 Oeste 12 Oeste -- -- -- 97
2019-11-28 11:00:00 10.7 4 Sudeste 8 Sudeste -- -- -- 98
2019-11-28 10:00:00 10.5 0 Calma 5 Sudeste -- -- -- 98
2019-11-28 09:00:00 10.2 0 Calma 5 Oeste -- -- -- 98
2019-11-28 08:00:00 10.2 0 Calma 2 Sudoeste -- -- -- 98
2019-11-28 07:00:00 10.2 0 Calma 4 Sur -- -- -- 98
2019-11-28 06:00:00 10.3 0 Calma 5 Sudeste -- -- -- 98
2019-11-28 05:00:00 10.2 0 Calma 9 Oeste -- -- -- 97
2019-11-28 04:00:00 10.2 4 Sudoeste 9 Oeste -- -- -- 97
2019-11-28 03:00:00 10.5 5 Oeste 15 Oeste -- -- -- 96
2019-11-28 02:00:00 10.6 2 Sur 12 Oeste -- -- -- 95
2019-11-28 01:00:00 10.9 7 Oeste 27 Oeste -- -- -- 93
2019-11-28 00:00:00 10.9 9 Oeste 26 Oeste -- -- -- 96
2019-11-27 23:00:00 10.1 2 Sur 12 Sur -- -- -- 96
2019-11-27 22:00:00 10.2 3 Sur 10 Sudoeste -- -- -- 94
2019-11-27 21:00:00 10.4 5 Oeste 17 Oeste -- -- -- 91
2019-11-27 20:00:00 10 5 Sudoeste 22 Oeste -- -- -- 94
2019-11-27 19:00:00 10.2 9 Oeste 30 Oeste -- -- -- 92
2019-11-27 18:00:00 10.2 3 Sudoeste 17 Oeste -- -- -- 94
2019-11-27 17:00:00 10.4 5 Sudoeste 26 Oeste -- -- -- 91
2019-11-27 16:00:00 11.1 9 Oeste 29 Oeste -- -- -- 86
2019-11-27 15:00:00 10.8 6 Sudoeste 20 Oeste -- -- -- 87
2019-11-27 14:00:00 10.4 8 Oeste 37 Oeste -- -- -- 91
2019-11-27 06:00:00 -- -- -- -- -- -- -- -- --
2019-11-27 05:00:00 -- -- -- -- -- -- -- -- --
2019-11-27 04:00:00 10.4 9 Oeste 31 Oeste 0 -- -- 87
2019-11-27 03:00:00 10.1 11 Oeste 29 Noroeste 0 -- -- 88
2019-11-27 02:00:00 10 13 Oeste 32 Oeste 0 -- -- 89
2019-11-27 01:00:00 10 11 Oeste 36 Oeste 0.2 -- -- 91
2019-11-27 00:00:00 9.6 17 Oeste 36 Sudoeste 0 -- -- 91
2019-11-26 23:00:00 9.4 9 Sudoeste 24 Oeste 0 -- -- 89
2019-11-26 22:00:00 9.7 9 Sudoeste 41 Sudoeste 0 -- -- 83
2019-11-26 21:00:00 9.6 19 Oeste 45 Oeste 0 -- -- 85
2019-11-26 20:00:00 9.8 12 Oeste 34 Oeste 0.2 -- -- 93
2019-11-26 19:00:00 10.2 10 Oeste 44 Oeste 0.6 -- -- 90
2019-11-26 18:00:00 10 12 Oeste 48 Oeste 4.6 -- -- 94
2019-11-26 17:00:00 12.8 13 Sudoeste 48 Oeste 0 -- -- 83
2019-11-26 16:00:00 12.8 17 Sudoeste 50 Oeste 0.6 -- -- 87
2019-11-26 15:00:00 13.1 8 Sudoeste 38 Sudoeste 0 -- -- 86
2019-11-26 14:00:00 14.7 8 Sudoeste 34 Sur 0 -- -- 72
2019-11-26 13:00:00 15.1 6 Sudoeste 31 Sur 0 -- -- 74
2019-11-26 12:00:00 14.5 6 Sudoeste 23 Sur 0 -- -- 77
2019-11-26 11:00:00 13.5 6 Sur 24 Sur 0 -- -- 83
2019-11-26 10:00:00 12.9 6 Sur 21 Sur 0 -- -- 88
2019-11-26 09:00:00 12 3 Sudoeste 17 Sudeste 0 -- -- 91
2019-11-26 08:00:00 12.3 4 Sudoeste 24 Sudoeste 0 -- -- 95
2019-11-26 07:00:00 12.7 3 Sur 15 Sur 0 -- -- 97
2019-11-26 06:00:00 12.8 4 Sur 17 Sur 0.2 -- -- 96
2019-11-26 05:00:00 12.9 5 Sur 24 Sur 0 -- -- 95
2019-11-26 04:00:00 12.9 6 Sur 26 Sudeste 0 -- -- 94
2019-11-26 03:00:00 12.8 7 Sur 22 Sudeste 0 -- -- 92
2019-11-26 02:00:00 12.4 4 Sur 21 Sur 0 -- -- 90
2019-11-26 01:00:00 12.3 8 Sur 27 Sur 0 -- -- 84
2019-11-26 00:00:00 12.3 8 Sur 27 Sudeste 0 -- -- 82
2019-11-25 23:00:00 12.5 9 Sur 26 Sudeste 0 -- -- 81
2019-11-25 22:00:00 12.1 5 Sur 18 Sur 0 -- -- 86
2019-11-25 21:00:00 11.6 4 Sur 21 Sur 0 -- -- 87
2019-11-25 20:00:00 11.4 5 Sur 20 Sur 0 -- -- 88
2019-11-25 19:00:00 11.7 5 Sudeste 14 Sur 0 -- -- 85
2019-11-25 18:00:00 12.4 3 Sur 16 Oeste 0 -- -- 83
2019-11-25 17:00:00 13.2 4 Sudoeste 26 Oeste 0 -- -- 77
2019-11-25 16:00:00 13.4 6 Sudoeste 24 Oeste 0 -- -- 74
2019-11-25 15:00:00 13.7 8 Sudoeste 23 Sudoeste 0 -- -- 77
2019-11-25 14:00:00 12.7 3 Sudoeste 9 Noroeste 0 -- -- 82
2019-11-25 13:00:00 12.3 3 Sudoeste 33 Oeste 0 -- -- 80
2019-11-25 12:00:00 11.8 13 Oeste 27 Oeste 0 -- -- 81
2019-11-25 11:00:00 11.5 8 Sudoeste 23 Oeste 0 -- -- 88
2019-11-25 10:00:00 10.8 5 Sudoeste 16 Oeste 0 -- -- 97
2019-11-25 09:00:00 10.5 2 Sudoeste 13 Oeste 0 -- -- 97
2019-11-25 08:00:00 10.4 3 Oeste 14 Oeste 0 -- -- 97
2019-11-25 07:00:00 10.7 2 Sudoeste 22 Sur 0 -- -- 94
2019-11-25 06:00:00 10.7 0 Calma 21 Oeste 0 -- -- 93
2019-11-25 05:00:00 11.1 9 Oeste 32 Sudoeste 0 -- -- 93
2019-11-25 04:00:00 11.2 9 Oeste 19 Oeste 0 -- -- 95
2019-11-25 03:00:00 11.4 3 Sudoeste 27 Sudoeste 0 -- -- 94
2019-11-25 02:00:00 11.9 12 Oeste 28 Oeste 0 -- -- 91
2019-11-25 01:00:00 11.8 3 Sudoeste 12 Sur 0 -- -- 97
2019-11-25 00:00:00 11.5 4 Sur 11 Sur 0 -- -- 97
2019-11-24 23:00:00 11.6 3 Sur 10 Sudoeste 0 -- -- 96
2019-11-24 22:00:00 11.7 3 Sur 18 Oeste 0 -- -- 96
2019-11-24 21:00:00 12.1 10 Sudoeste 25 Sudoeste 0 -- -- 97
2019-11-24 20:00:00 10.9 3 Sur 16 Sur 0 -- -- 98
2019-11-24 19:00:00 10.5 4 Sur 33 Oeste 0 -- -- 97
2019-11-24 18:00:00 10.3 7 Sur 23 Sur 0 -- -- 96
2019-11-24 17:00:00 10.3 7 Sur 25 Sudeste 0 -- -- 94
2019-11-24 16:00:00 10.8 6 Sur 29 Sur 0 -- -- 91
2019-11-24 15:00:00 11.1 10 Sur 29 Sur 0 -- -- 88
2019-11-24 14:00:00 9.6 6 Sur 29 Sur 0 -- -- 90
2019-11-24 13:00:00 9.2 9 Sur 25 Sudeste 0 -- -- 91
2019-11-24 12:00:00 9.7 4 Sudoeste 23 Sudeste 0 -- -- 86
2019-11-24 11:00:00 8.3 7 Sur 21 Sur 0 -- -- 92
2019-11-24 10:00:00 7.5 5 Sur 19 Sudoeste 0 -- -- 95
2019-11-24 09:00:00 6.6 6 Sur 13 Sur 0 -- -- 96
2019-11-24 08:00:00 6.2 4 Sur 14 Sudeste 0 -- -- 97
2019-11-24 07:00:00 5.8 3 Sudeste 9 Sudeste 0 -- -- 96
2019-11-24 06:00:00 6.1 3 Sur 16 Sudeste 0 -- -- 96
2019-11-24 05:00:00 6 3 Sur 12 Sur 0 -- -- 97
2019-11-24 04:00:00 5.7 0 Calma 9 Oeste 0 -- -- 96
2019-11-24 03:00:00 5.8 0 Calma 5 Sudoeste 0 -- -- 97
2019-11-24 02:00:00 5.8 0 Calma 4 Sudeste 0 -- -- 97
2019-11-24 01:00:00 5.9 0 Calma 5 Sudeste 0 -- -- 96
2019-11-24 00:00:00 5.9 3 Sudeste 6 Sudeste 0 -- -- 96
2019-11-23 23:00:00 6 3 Sudeste 12 Oeste 0 -- -- 95
2019-11-23 22:00:00 6.7 2 Oeste 9 Noroeste 0 -- -- 94
2019-11-23 21:00:00 6.8 2 Sudoeste 8 Oeste 0 -- -- 95
2019-11-23 20:00:00 6.8 3 Noroeste 16 Oeste 0 -- -- 94
2019-11-23 19:00:00 7.7 7 Oeste 18 Oeste 0 -- -- 92
2019-11-23 18:00:00 8.5 5 Oeste 14 Noroeste 0 -- -- 90
2019-11-23 17:00:00 9 8 Noroeste 26 Noroeste 0 -- -- 86
2019-11-23 16:00:00 9.3 10 Noroeste 25 Oeste 0.2 -- -- 88
2019-11-23 15:00:00 10.6 10 Noroeste 28 Noroeste 0 -- -- 78
2019-11-23 14:00:00 9.4 7 Noroeste 21 Noroeste 0.6 -- -- 91
2019-11-23 13:00:00 9.3 9 Noroeste 27 Oeste 0 -- -- 87
2019-11-23 12:00:00 9 13 Oeste 28 Noroeste 0 -- -- 87
2019-11-23 11:00:00 9 9 Noroeste 24 Oeste 0 -- -- 89
2019-11-23 10:00:00 7.4 5 Oeste 15 Norte 0 -- -- 94
2019-11-23 09:00:00 6.5 3 Noroeste 22 Noroeste 0 -- -- 95
2019-11-23 08:00:00 6.5 6 Noroeste 23 Noroeste 0.4 -- -- 95
2019-11-23 07:00:00 6.3 4 Noroeste 13 Noroeste 0 -- -- 95
2019-11-23 06:00:00 6.1 5 Noroeste 16 Noroeste 0 -- -- 94
2019-11-23 05:00:00 5.8 3 Noroeste 13 Oeste 0 -- -- 94
2019-11-23 04:00:00 6.3 7 Noroeste 28 Oeste 0 -- -- 93
2019-11-23 03:00:00 6.7 13 Noroeste 31 Oeste 0 -- -- 92
2019-11-23 02:00:00 6.4 12 Noroeste 57 Noroeste 0 -- -- 91
2019-11-23 01:00:00 7.2 12 Noroeste 38 Oeste 0.4 -- -- 96
2019-11-23 00:00:00 6.9 17 Oeste 51 Oeste 0 -- -- 96
2019-11-22 23:00:00 7.3 23 Oeste 45 Oeste 2.4 -- -- 94
2019-11-22 22:00:00 8.1 18 Oeste 44 Oeste 0.4 -- -- 93
2019-11-22 21:00:00 8.8 14 Oeste 48 Oeste 0 -- -- 92
2019-11-22 20:00:00 9.1 15 Oeste 42 Oeste 0.4 -- -- 94
2019-11-22 19:00:00 9.3 20 Oeste 52 Oeste 0 -- -- 93
2019-11-22 18:00:00 9.6 15 Oeste 52 Oeste 0 -- -- 91
2019-11-22 17:00:00 9.2 4 Sudoeste 28 Oeste 0.4 -- -- 95
2019-11-22 16:00:00 9.5 17 Sudoeste 39 Oeste 0.2 -- -- 90
2019-11-22 15:00:00 10.4 15 Sudoeste 42 Oeste 0 -- -- 86
2019-11-22 14:00:00 10.9 17 Oeste 41 Oeste 0.2 -- -- 86
2019-11-22 13:00:00 11.9 20 Oeste 42 Oeste 0 -- -- 80
2019-11-22 12:00:00 10.8 10 Oeste 52 Oeste -- -- -- 93
2019-11-22 11:00:00 11.3 5 Sur 24 Sur 0 -- -- 97
2019-11-22 10:00:00 9.5 10 Sur 29 Sudeste 0 -- -- 97
2019-11-22 09:00:00 9 8 Sur 28 Sudeste 0 -- -- 96
2019-11-22 08:00:00 8.8 9 Sur 30 Sudeste 0 -- -- 92
2019-11-22 07:00:00 8.5 10 Sur 33 Sur 0 -- -- 93
2019-11-22 06:00:00 8 10 Sur 30 Sur 0 -- -- 93
2019-11-22 05:00:00 7.3 10 Sur 22 Sudeste 0 -- -- 94
2019-11-22 04:00:00 7.2 9 Sur 24 Sudeste 0 -- -- 95
2019-11-22 03:00:00 7.2 6 Sur 22 Sudoeste 0 -- -- 92
2019-11-22 02:00:00 7.5 5 Sur 23 Sur 0 -- -- 88
2019-11-22 01:00:00 7.2 5 Sur 17 Sudeste 0 -- -- 85
2019-11-22 00:00:00 7.3 4 Sur 14 Sur 0 -- -- 85
2019-11-21 23:00:00 7.2 6 Sudeste 15 Sur 0 -- -- 90
2019-11-21 22:00:00 7 4 Sur 15 Sudeste 0 -- -- 90
2019-11-21 21:00:00 7.2 3 Sur 12 Sur 0 -- -- 89
2019-11-21 20:00:00 7.3 3 Sur 10 Sur 0 -- -- 87
2019-11-21 19:00:00 7.9 3 Sudoeste 9 Sudeste 0 -- -- 83
2019-11-21 18:00:00 8.6 0 Calma 15 Noroeste 0 -- -- 81
2019-11-21 17:00:00 10.7 4 Oeste 21 Oeste 0 -- -- 72
2019-11-21 16:00:00 10.2 5 Sudoeste 28 Oeste 0 -- -- 70
2019-11-21 15:00:00 10.1 12 Oeste 28 Oeste 0 -- -- 71
2019-11-21 14:00:00 10.5 3 Sudoeste 20 Oeste 0 -- -- 82
2019-11-21 13:00:00 9 9 Sudoeste 22 Oeste 0 -- -- 82
2019-11-21 12:00:00 9 5 Sudeste 12 Sur 0 -- -- 92
2019-11-21 11:00:00 7.7 4 Sudeste 13 Sudeste 0 -- -- 96
2019-11-21 10:00:00 5 3 Este 8 Este 0 -- -- 99
2019-11-21 09:00:00 3.9 4 Sudeste 8 Sudeste 0 -- -- 99
2019-11-21 08:00:00 3.7 2 Sudeste 8 Sudeste 0 -- -- 99
2019-11-21 07:00:00 3.9 3 Sudeste 8 Este 0 -- -- 98
2019-11-21 06:00:00 4.1 2 Sudeste 8 Sur 0 -- -- 98
2019-11-21 05:00:00 4.5 4 Sudeste 8 Sudeste 0 -- -- 98
2019-11-21 04:00:00 5 2 Sudeste 5 Sudeste 0 -- -- 96
2019-11-21 03:00:00 6 0 Calma 12 Oeste 0 -- -- 96
2019-11-21 02:00:00 6.3 4 Sudoeste 13 Oeste 0 -- -- 96
2019-11-21 01:00:00 6.2 2 Sudoeste 13 Oeste 0 -- -- 97
2019-11-21 00:00:00 5.9 3 Sur 12 Sudeste 0 -- -- 97
2019-11-20 23:00:00 6.1 3 Sur 13 Sudeste 0 -- -- 96
2019-11-20 22:00:00 6.4 4 Sur 15 Sur 0 -- -- 95
2019-11-20 21:00:00 6.7 2 Sur 9 Oeste 0 -- -- 94
2019-11-20 20:00:00 6.3 2 Sur 14 Sudeste 0 -- -- 94
2019-11-20 19:00:00 6.9 2 Sur 13 Sudeste 0 -- -- 93
2019-11-20 18:00:00 7.4 4 Sur 14 Sur 0 -- -- 90
2019-11-20 17:00:00 7.7 2 Sudoeste 15 Oeste 0 -- -- 92
2019-11-20 16:00:00 8.2 5 Oeste 14 Oeste 0 -- -- 91
2019-11-20 15:00:00 9.7 4 Sudoeste 22 Oeste 0 -- -- 82
2019-11-20 14:00:00 11 5 Sudoeste 18 Sudeste 0 -- -- 78
2019-11-20 13:00:00 10.2 6 Sudoeste 23 Sudeste 0 -- -- 81
2019-11-20 12:00:00 9.3 6 Sur 18 Sur 0 -- -- 90
2019-11-20 11:00:00 8 6 Sudeste 15 Este 0 -- -- 94
2019-11-20 10:00:00 6.8 6 Sudeste 12 Sudeste 0 -- -- 97
2019-11-20 09:00:00 6.1 2 Sur 9 Sur 0 -- -- 98
2019-11-20 08:00:00 6 3 Sur 11 Sudeste 0 -- -- 98
2019-11-20 07:00:00 6.1 0 Calma 6 Sur 0 -- -- 97
2019-11-20 06:00:00 6.4 0 Calma 5 Sur 0 -- -- 96
2019-11-20 05:00:00 6.9 0 Calma 11 Sudeste 0 -- -- 96
2019-11-20 04:00:00 7 2 Sudeste 8 Sudeste 0 -- -- 96
2019-11-20 03:00:00 7 2 Sur 7 Sudeste 0 -- -- 96
2019-11-20 02:00:00 7.1 0 Calma 10 Sur 0 -- -- 96
2019-11-20 01:00:00 7.1 3 Sudoeste 17 Sur 0 -- -- 96
2019-11-20 00:00:00 7.1 2 Sudoeste 13 Sur 0 -- -- 97
2019-11-19 23:00:00 7.1 2 Sur 12 Sur 0 -- -- 97
2019-11-19 22:00:00 7 3 Sur 11 Sur 0 -- -- 97
2019-11-19 21:00:00 7 2 Sudoeste 9 Sur 0 -- -- 96
2019-11-19 20:00:00 7.2 2 Sudoeste 6 Oeste 0 -- -- 96
2019-11-19 19:00:00 7.4 0 Calma 6 Sudeste 0 -- -- 95
2019-11-19 18:00:00 7.7 3 Sur 10 Sur 0 -- -- 93
2019-11-19 17:00:00 7.9 4 Sudeste 12 Sur 0 -- -- 91
2019-11-19 16:00:00 9.1 3 Sudoeste 11 Oeste 0 -- -- 81
2019-11-19 15:00:00 9 4 Sur 15 Sur 0 -- -- 82
2019-11-19 14:00:00 8.5 4 Sudeste 17 Sur 0 -- -- 87
2019-11-19 13:00:00 7.8 3 Sur 12 Sur 0 -- -- 94
2019-11-19 12:00:00 5.3 3 Sudeste 13 Sudeste 0 -- -- 98
2019-11-19 11:00:00 3.8 5 Sudeste 13 Sudeste 0 -- -- 99
2019-11-19 10:00:00 2.8 6 Sudeste 13 Sudeste 0 -- -- 100
2019-11-19 09:00:00 1.7 5 Sudeste 11 Sudeste 0 -- -- 100
2019-11-19 08:00:00 1.5 5 Sudeste 12 Sudeste 0 -- -- 100
2019-11-19 07:00:00 1.6 5 Sudeste 11 Sudeste 0 -- -- 99
2019-11-19 06:00:00 2 4 Sudeste 12 Sudeste 0 -- -- 99
2019-11-19 05:00:00 2.2 3 Sudeste 9 Sudeste 0 -- -- 99
2019-11-19 04:00:00 2.4 3 Sudeste 12 Sudeste 0 -- -- 99
2019-11-19 03:00:00 2 6 Sudeste 11 Sudeste 0 -- -- 99
2019-11-19 02:00:00 2.6 4 Sudeste 9 Sudeste 0 -- -- 98
2019-11-19 01:00:00 3 0 Calma 8 Este 0 -- -- 98
2019-11-19 00:00:00 3.2 3 Sudeste 6 Sudeste 0 -- -- 98
2019-11-18 23:00:00 3.6 0 Calma 4 Oeste 0 -- -- 97
2019-11-18 22:00:00 4.4 0 Calma 4 Sudeste 0 -- -- 96
2019-11-18 21:00:00 5.6 2 Sudeste 5 Sudeste 0 -- -- 95
2019-11-18 20:00:00 6.9 0 Calma 4 Noroeste 0 -- -- 93
2019-11-18 19:00:00 7.4 0 Calma 3 Sur 0 -- -- 93
2019-11-18 18:00:00 8 0 Calma 5 Sur 0 -- -- 86
2019-11-18 17:00:00 9.7 0 Calma 6 Sudeste 0 -- -- 79
2019-11-18 16:00:00 9.9 0 Calma 5 Oeste 0 -- -- 80
2019-11-18 15:00:00 10 0 Calma 9 Sudeste 0 -- -- 83
2019-11-18 14:00:00 9.3 3 Este 8 Sudeste 0 -- -- 86
2019-11-18 13:00:00 8.4 3 Sudeste 8 Sudeste 0 -- -- 90
2019-11-18 12:00:00 8.2 4 Sudeste 9 Sudeste 0 -- -- 93
2019-11-18 11:00:00 6.7 3 Sudeste 5 Sudeste 0 -- -- 97
2019-11-18 10:00:00 5.7 0 Calma 3 Este 0 -- -- 98
2019-11-18 09:00:00 5.2 0 Calma 3 Sudeste 0 -- -- 98
2019-11-18 08:00:00 5 0 Calma 7 Este 0 -- -- 98
2019-11-18 07:00:00 5.1 2 Noroeste 8 Norte 0 -- -- 98
2019-11-18 06:00:00 5.4 3 Noroeste 12 Noroeste 0 -- -- 97
2019-11-18 05:00:00 5.4 5 Noroeste 12 Noroeste 0 -- -- 99
2019-11-18 04:00:00 5.6 3 Noroeste 8 Oeste 0 -- -- 98
2019-11-18 03:00:00 5.8 3 Nordeste 8 Nordeste 0 -- -- 98
2019-11-18 02:00:00 5.8 2 Noroeste 4 Oeste 0 -- -- 97
2019-11-18 01:00:00 6 2 Nordeste 5 Nordeste 0 -- -- 97
2019-11-18 00:00:00 5.6 0 Calma 8 Noroeste 0 -- -- 96
2019-11-17 23:00:00 6.2 3 Norte 21 Norte 0 -- -- 95
2019-11-17 22:00:00 6.7 5 Noroeste 13 Noroeste 0 -- -- 97
2019-11-17 21:00:00 6.9 4 Noroeste 13 Noroeste 0 -- -- 97
2019-11-17 20:00:00 7 2 Noroeste 16 Oeste 0 -- -- 96
2019-11-17 19:00:00 7.1 5 Oeste 14 Noroeste 0 -- -- 92
2019-11-17 18:00:00 7.5 3 Oeste 19 Oeste 0 -- -- 91
2019-11-17 17:00:00 8.5 9 Noroeste 25 Noroeste 0 -- -- 85
2019-11-17 16:00:00 8.9 9 Noroeste 26 Noroeste 0 -- -- 84
2019-11-17 15:00:00 9 9 Noroeste 24 Oeste 0 -- -- 78
2019-11-17 14:00:00 8.9 6 Noroeste 30 Oeste 0 -- -- 88
2019-11-17 13:00:00 9 6 Oeste 21 Noroeste 0 -- -- 92
2019-11-17 12:00:00 8.8 5 Noroeste 19 Oeste 0 -- -- 94
2019-11-17 11:00:00 8.2 4 Oeste 13 Noroeste 0 -- -- 96
2019-11-17 10:00:00 7.9 4 Noroeste 21 Noroeste 0 -- -- 97
2019-11-17 09:00:00 7.5 0 Calma 3 Sudeste 0 -- -- 98
2019-11-17 08:00:00 7.3 3 Sudeste 8 Sudeste 0 -- -- 97
2019-11-17 07:00:00 7.3 0 Calma 3 Sudeste 0 -- -- 97
2019-11-17 06:00:00 7.1 0 Calma 12 Sudeste 0 -- -- 97
2019-11-17 05:00:00 7 6 Sudeste 14 Sudeste 0 -- -- 96
2019-11-17 04:00:00 6.8 4 Sur 10 Sudeste 0 -- -- 95
2019-11-17 03:00:00 6.8 3 Sudeste 11 Sur 0 -- -- 94
2019-11-17 02:00:00 6.6 4 Sur 17 Sudeste 0 -- -- 94
2019-11-17 01:00:00 6.5 4 Sur 14 Sudeste 0 -- -- 94
2019-11-17 00:00:00 6.3 0 Calma 9 Sur 0 -- -- 94
2019-11-16 23:00:00 6.4 3 Sur 10 Sudeste 0 -- -- 93
2019-11-16 22:00:00 6.4 3 Sur 13 Sudeste 0 -- -- 92
2019-11-16 21:00:00 6.4 4 Sur 10 Sudeste 0 -- -- 91
2019-11-16 20:00:00 6.5 0 Calma 6 Sudeste 0 -- -- 90
2019-11-16 19:00:00 6.5 0 Calma 11 Noroeste 0 -- -- 89
2019-11-16 18:00:00 6.8 6 Oeste 24 Sudoeste 0 -- -- 84
2019-11-16 17:00:00 7.1 6 Oeste 19 Sudoeste 0 -- -- 83
2019-11-16 16:00:00 7.4 4 Oeste 15 Oeste 0 -- -- 82
2019-11-16 15:00:00 7.4 9 Oeste 28 Oeste 0 -- -- 79
2019-11-16 14:00:00 8.1 7 Oeste 18 Oeste 0 -- -- 79
2019-11-16 13:00:00 7.2 8 Oeste 22 Oeste 0 -- -- 88
2019-11-16 12:00:00 7 3 Sur 11 Sudeste 0 -- -- 97
2019-11-16 11:00:00 4.8 3 Sudeste 5 Sudeste 0 -- -- 98
2019-11-16 10:00:00 4.2 2 Sudeste 9 Este 0 -- -- 99
2019-11-16 09:00:00 3.3 0 Calma 9 Sudeste 0 -- -- 99
2019-11-16 08:00:00 3.2 2 Sudeste 8 Sudeste 0 -- -- 99
2019-11-16 07:00:00 3.4 3 Sudeste 6 Este 0 -- -- 99
2019-11-16 06:00:00 3.5 0 Calma 4 Sudeste 0.2 -- -- 99
2019-11-16 05:00:00 3.5 0 Calma 3 Sudeste 0.4 -- -- 99
2019-11-16 04:00:00 3.2 0 Calma 5 Norte 0 -- -- 99
2019-11-16 03:00:00 3.3 0 Calma 9 Noroeste 0.2 -- -- 98
2019-11-16 02:00:00 3.8 3 Este 7 Nordeste 3.2 -- -- 98
2019-11-16 01:00:00 2.8 0 Calma 6 Sudoeste 0 -- -- 97
2019-11-16 00:00:00 3.3 0 Calma 10 Noroeste 0.2 -- -- 97
2019-11-15 23:00:00 3.4 5 Noroeste 17 Noroeste 0.4 -- -- 97
2019-11-15 22:00:00 3.7 9 Noroeste 21 Noroeste 1.4 -- -- 96
2019-11-15 21:00:00 4 5 Noroeste 14 Noroeste 1.8 -- -- 97
2019-11-15 20:00:00 4.3 2 Norte 25 Norte 0.4 -- -- 95
2019-11-15 19:00:00 4.2 8 Noroeste 17 Noroeste 0.2 -- -- 97
2019-11-15 18:00:00 4.2 5 Noroeste 23 Norte 2.2 -- -- 96
2019-11-15 17:00:00 3.9 5 Norte 31 Norte 3.8 -- -- 95
2019-11-15 16:00:00 4.4 6 Norte 27 Norte 3.6 -- -- 94
2019-11-15 15:00:00 6.5 10 Noroeste 24 Noroeste 0 -- -- 89
2019-11-15 14:00:00 4.6 6 Noroeste 28 Nordeste 1.4 -- -- 93
2019-11-15 13:00:00 5.8 5 Noroeste 19 Norte 0.2 -- -- 90
2019-11-15 12:00:00 5.1 6 Nordeste 13 Norte 0 -- -- 90
2019-11-15 11:00:00 5 4 Noroeste 17 Norte 0 -- -- 91
2019-11-15 10:00:00 4 5 Noroeste 14 Noroeste 0 -- -- 94
2019-11-15 09:00:00 2.9 3 Noroeste 13 Noroeste 0 -- -- 95
2019-11-15 08:00:00 3.3 5 Noroeste 20 Noroeste 0 -- -- 93
2019-11-15 07:00:00 3.5 7 Noroeste 25 Noroeste 0.4 -- -- 95
2019-11-15 06:00:00 3.7 10 Noroeste 31 Noroeste 0.8 -- -- 97
2019-11-15 05:00:00 3.3 5 Noroeste 12 Oeste 0.2 -- -- 98
2019-11-15 04:00:00 3.2 3 Norte 17 Noroeste 1.6 -- -- 97
2019-11-15 03:00:00 2.9 6 Noroeste 30 Noroeste 0.6 -- -- 97
2019-11-15 02:00:00 3.5 9 Noroeste 23 Noroeste 1.4 -- -- 96
2019-11-15 01:00:00 3.4 6 Noroeste 25 Noroeste 2.4 -- -- 95
2019-11-15 00:00:00 4.4 5 Noroeste 23 Norte 1 -- -- 94
2019-11-14 23:00:00 4.5 7 Noroeste 32 Noroeste 1.2 -- -- 93
2019-11-14 22:00:00 4.8 6 Noroeste 23 Noroeste 0.2 -- -- 93
2019-11-14 21:00:00 4.7 8 Noroeste 34 Noroeste 0.2 -- -- 93
2019-11-14 20:00:00 4.6 10 Noroeste 34 Noroeste 2 -- -- 94
2019-11-14 19:00:00 5 11 Noroeste 39 Noroeste 0.6 -- -- 94
2019-11-14 18:00:00 5.3 13 Noroeste 44 Oeste 2 -- -- 94
2019-11-14 17:00:00 6 16 Noroeste 39 Noroeste 1.2 -- -- 91
2019-11-14 16:00:00 6.7 16 Noroeste 40 Oeste 1 -- -- 90
2019-11-14 15:00:00 7.7 15 Noroeste 44 Noroeste 0 -- -- 84
2019-11-14 14:00:00 7 13 Noroeste 35 Noroeste 0.2 -- -- 92
2019-11-14 13:00:00 5.9 9 Noroeste 24 Oeste 2 -- -- 96
2019-11-14 12:00:00 4.7 11 Oeste 31 Oeste 1.6 -- -- 95
2019-11-14 11:00:00 4.1 4 Oeste 22 Oeste 1.4 -- -- 96
2019-11-14 10:00:00 3.3 3 Sudoeste 22 Oeste 1.2 -- -- 96
2019-11-14 09:00:00 3.5 2 Sur 18 Oeste 0 -- -- 95
2019-11-14 08:00:00 3 2 Sur 9 Oeste 0 -- -- 96
2019-11-14 07:00:00 3.2 3 Sudoeste 14 Oeste 0.2 -- -- 95
2019-11-14 06:00:00 3.3 8 Oeste 35 Noroeste 1.2 -- -- 94
2019-11-14 05:00:00 4.4 4 Noroeste 15 Noroeste 0.8 -- -- 95
2019-11-14 04:00:00 4.4 2 Noroeste 23 Norte 0.6 -- -- 94
2019-11-14 03:00:00 5.3 8 Noroeste 26 Noroeste 0 -- -- 93
2019-11-14 02:00:00 5.2 11 Noroeste 38 Oeste 1.2 -- -- 95
2019-11-14 01:00:00 6.5 13 Oeste 32 Oeste 1 -- -- 93
2019-11-14 00:00:00 7.6 9 Noroeste 42 Oeste 0.2 -- -- 92
2019-11-13 23:00:00 8.3 10 Oeste 39 Noroeste 4.6 -- -- 95
2019-11-13 22:00:00 8.8 17 Oeste 36 Oeste 0.4 -- -- 92
2019-11-13 21:00:00 9.2 14 Oeste 32 Oeste 0 -- -- 87
2019-11-13 20:00:00 8.8 14 Oeste 30 Oeste 0 -- -- 91
2019-11-13 19:00:00 9.5 9 Oeste 30 Oeste 0 -- -- 81
2019-11-13 18:00:00 10.4 7 Oeste 25 Oeste 0 -- -- 84
2019-11-13 17:00:00 11.1 9 Oeste 28 Oeste 0 -- -- 80
2019-11-13 16:00:00 11.7 6 Oeste 21 Oeste 0 -- -- 76
2019-11-13 15:00:00 11.1 5 Oeste 15 Oeste 0 -- -- 78
2019-11-13 14:00:00 10.7 8 Oeste 18 Noroeste 0 -- -- 83
2019-11-13 13:00:00 10.6 2 Noroeste 22 Noroeste 0 -- -- 83
2019-11-13 12:00:00 10.4 5 Noroeste 15 Oeste 0 -- -- 93
2019-11-13 11:00:00 10.4 3 Noroeste 10 Norte 0 -- -- 91
2019-11-13 10:00:00 9.5 4 Norte 20 Norte -- -- -- 94
2019-11-13 09:00:00 9.3 5 Norte 22 Norte 0 -- -- 95
2019-11-13 08:00:00 9.6 7 Norte 20 Norte 0 -- -- 96
2019-11-13 07:00:00 10 8 Norte 15 Norte 0 -- -- 97
2019-11-13 06:00:00 10.3 3 Norte 14 Norte 0 -- -- 97
2019-11-13 05:00:00 10.5 5 Norte 16 Noroeste 0 -- -- 97
2019-11-13 04:00:00 10.8 5 Norte 20 Norte 0 -- -- 97
2019-11-13 03:00:00 11.3 6 Noroeste 15 Norte 0 -- -- 98
2019-11-13 02:00:00 11.7 5 Noroeste 24 Norte 0 -- -- 97
2019-11-13 01:00:00 13.2 8 Noroeste 21 Norte 0 -- -- 98
2019-11-13 00:00:00 13 4 Noroeste 14 Oeste 0 -- -- 98
2019-11-12 23:00:00 12.9 5 Oeste 17 Oeste 0 -- -- 98
2019-11-12 22:00:00 12.8 6 Oeste 16 Oeste 0 -- -- 98
2019-11-12 21:00:00 12.6 4 Oeste 10 Oeste 0 -- -- 98
2019-11-12 20:00:00 11 0 Calma 9 Sudeste 0 -- -- 98
2019-11-12 19:00:00 10.3 4 Sudeste 9 Sudeste 0 -- -- 98
2019-11-12 18:00:00 10 3 Sur 10 Sudoeste 0 -- -- 98
2019-11-12 17:00:00 9.7 3 Sur 14 Sur 0 -- -- 97
2019-11-12 16:00:00 9.6 4 Sur 18 Sur 0 -- -- 97
2019-11-12 15:00:00 9.3 4 Sur 19 Sur 0 -- -- 96
2019-11-12 14:00:00 8.8 4 Sur 17 Sudeste 0 -- -- 95
2019-11-12 13:00:00 8.7 4 Sur 15 Sur 0 -- -- 96
2019-11-12 12:00:00 8.3 4 Sur 15 Sur 0 -- -- 96
2019-11-12 11:00:00 8.3 2 Sur 9 Sudeste 0 -- -- 97
2019-11-12 10:00:00 7.4 3 Sur 9 Sudeste 0 -- -- 98
2019-11-12 09:00:00 6.6 3 Sudeste 8 Sudeste 0 -- -- 98
2019-11-12 08:00:00 6.3 3 Sudeste 7 Sudeste 0 -- -- 97
2019-11-12 07:00:00 6.3 3 Sudeste 6 Este 0 -- -- 97
2019-11-12 06:00:00 6 0 Calma 8 Sudeste 0 -- -- 97
2019-11-12 05:00:00 5.8 3 Sudeste 8 Sudeste 0 -- -- 97
2019-11-12 04:00:00 5.8 3 Sudeste 8 Sudeste 0 -- -- 97
2019-11-12 03:00:00 5.7 3 Sudeste 8 Sudeste 0 -- -- 96
2019-11-12 02:00:00 5.9 4 Sudeste 7 Sudeste 0 -- -- 96
2019-11-12 01:00:00 5.9 3 Sudeste 7 Sudeste 0 -- -- 95
2019-11-12 00:00:00 6.1 2 Sudeste 4 Sudeste 0 -- -- 95
2019-11-11 23:00:00 6 0 Calma 4 Sudeste 0 -- -- 95
2019-11-11 22:00:00 6.2 0 Calma 5 Noroeste 0 -- -- 93
2019-11-11 21:00:00 6.8 0 Calma 5 Noroeste 0 -- -- 92
2019-11-11 20:00:00 7.4 0 Calma 6 Nordeste 0 -- -- 90
2019-11-11 19:00:00 8.2 0 Calma 9 Norte 0 -- -- 87
2019-11-11 18:00:00 9.5 4 Noroeste 15 Norte 0 -- -- 79
2019-11-11 17:00:00 10 6 Norte 22 Norte 0 -- -- 75
2019-11-11 16:00:00 11.4 8 Nordeste 22 Nordeste 0 -- -- 70
2019-11-11 15:00:00 11.2 7 Norte 25 Noroeste 0 -- -- 72
2019-11-11 14:00:00 11.8 8 Norte 27 Norte 0 -- -- 69
2019-11-11 13:00:00 10.7 10 Norte 24 Norte 0 -- -- 82
2019-11-11 12:00:00 10.4 6 Norte 23 Norte 0 -- -- 91
2019-11-11 11:00:00 10 7 Noroeste 21 Noroeste 0 -- -- 96
2019-11-11 10:00:00 9.4 3 Norte 14 Norte 0 -- -- 99
2019-11-11 09:00:00 8.5 3 Norte 12 Norte 0.2 -- -- 100
2019-11-11 08:00:00 7.9 0 Calma 9 Este 0.2 -- -- 99
2019-11-11 07:00:00 7.4 3 Sudeste 10 Este 0 -- -- 99
2019-11-11 06:00:00 7.1 5 Sudeste 13 Sudeste 0 -- -- 99
2019-11-11 05:00:00 6.9 5 Sudeste 13 Sudeste 0 -- -- 99
2019-11-11 04:00:00 6.7 6 Sudeste 14 Sudeste 0 -- -- 99
2019-11-11 03:00:00 6.7 6 Sudeste 13 Sudeste 0.2 -- -- 99
2019-11-11 02:00:00 6.6 3 Sudeste 10 Sudeste 0.2 -- -- 98
2019-11-11 01:00:00 6.5 5 Sudeste 11 Sudeste 0 -- -- 98
2019-11-11 00:00:00 6.4 7 Sudeste 13 Sudeste 0.2 -- -- 98